sensor_id;sensor_type;location;lat;lon;timestamp;pressure;altitude;pressure_sealevel;temperature;humidity
40850;BME280;26571;41.610;25.380;2023-07-31T00:01:45;97635.03;;;23.79;71.57
40850;BME280;26571;41.610;25.380;2023-07-31T00:04:10;97637.19;;;23.71;71.46
40850;BME280;26571;41.610;25.380;2023-07-31T00:06:35;97643.63;;;23.76;70.36
40850;BME280;26571;41.610;25.380;2023-07-31T00:09:01;97636.63;;;23.59;70.78
40850;BME280;26571;41.610;25.380;2023-07-31T00:11:26;97613.56;;;23.38;71.13
40850;BME280;26571;41.610;25.380;2023-07-31T00:13:53;97632.06;;;23.50;71.46
40850;BME280;26571;41.610;25.380;2023-07-31T00:16:18;97629.09;;;23.51;71.54
40850;BME280;26571;41.610;25.380;2023-07-31T00:18:44;97628.03;;;23.47;72.31
40850;BME280;26571;41.610;25.380;2023-07-31T00:21:09;97630.19;;;23.50;72.21
40850;BME280;26571;41.610;25.380;2023-07-31T00:23:35;97626.97;;;23.43;72.43
40850;BME280;26571;41.610;25.380;2023-07-31T00:26:00;97630.72;;;23.42;72.30
40850;BME280;26571;41.610;25.380;2023-07-31T00:28:26;97610.31;;;23.15;72.69
40850;BME280;26571;41.610;25.380;2023-07-31T00:30:52;97629.09;;;23.31;72.60
40850;BME280;26571;41.610;25.380;2023-07-31T00:33:18;97641.75;;;23.30;72.94
40850;BME280;26571;41.610;25.380;2023-07-31T00:35:43;97617.84;;;23.13;73.50
40850;BME280;26571;41.610;25.380;2023-07-31T00:38:09;97642.00;;;23.24;73.97
40850;BME280;26571;41.610;25.380;2023-07-31T00:40:35;97643.09;;;23.23;73.92
40850;BME280;26571;41.610;25.380;2023-07-31T00:43:02;97626.97;;;23.12;74.13
40850;BME280;26571;41.610;25.380;2023-07-31T00:45:28;97629.88;;;23.06;74.68
40850;BME280;26571;41.610;25.380;2023-07-31T00:47:54;97625.09;;;23.08;73.77
40850;BME280;26571;41.610;25.380;2023-07-31T00:50:19;97640.41;;;23.12;73.46
40850;BME280;26571;41.610;25.380;2023-07-31T00:52:45;97613.25;;;22.93;73.33
40850;BME280;26571;41.610;25.380;2023-07-31T00:55:10;97643.03;;;23.07;73.67
40850;BME280;26571;41.610;25.380;2023-07-31T00:57:36;97648.69;;;23.11;73.13
40850;BME280;26571;41.610;25.380;2023-07-31T01:00:04;97628.53;;;22.93;73.56
40850;BME280;26571;41.610;25.380;2023-07-31T01:02:29;97655.41;;;23.03;73.85
40850;BME280;26571;41.610;25.380;2023-07-31T01:04:55;97648.94;;;22.99;74.91
40850;BME280;26571;41.610;25.380;2023-07-31T01:07:45;97654.84;;;23.06;74.44
40850;BME280;26571;41.610;25.380;2023-07-31T01:10:21;97658.88;;;22.93;74.58
40850;BME280;26571;41.610;25.380;2023-07-31T01:12:50;97589.75;;;22.48;75.40
40850;BME280;26571;41.610;25.380;2023-07-31T01:15:17;97667.19;;;22.97;75.24
40850;BME280;26571;41.610;25.380;2023-07-31T01:17:43;97669.84;;;22.92;75.43
40850;BME280;26571;41.610;25.380;2023-07-31T01:20:12;97680.81;;;22.85;75.27
40850;BME280;26571;41.610;25.380;2023-07-31T01:28:08;97682.41;;;22.76;75.05
40850;BME280;26571;41.610;25.380;2023-07-31T01:30:39;97691.25;;;22.82;74.47
40850;BME280;26571;41.610;25.380;2023-07-31T01:33:07;97668.13;;;22.65;75.13
40850;BME280;26571;41.610;25.380;2023-07-31T01:35:34;97690.19;;;22.78;74.71
40850;BME280;26571;41.610;25.380;2023-07-31T01:38:00;97658.22;;;22.66;74.86
40850;BME280;26571;41.610;25.380;2023-07-31T01:40:25;97655.97;;;22.48;75.52
40850;BME280;26571;41.610;25.380;2023-07-31T01:42:51;97685.00;;;22.56;76.10
40850;BME280;26571;41.610;25.380;2023-07-31T01:45:16;97690.38;;;22.61;76.29
40850;BME280;26571;41.610;25.380;2023-07-31T01:47:41;97691.16;;;22.51;76.46
40850;BME280;26571;41.610;25.380;2023-07-31T01:50:07;97690.94;;;22.58;75.86
40850;BME280;26571;41.610;25.380;2023-07-31T01:52:33;97689.03;;;22.53;76.07
40850;BME280;26571;41.610;25.380;2023-07-31T01:54:58;97684.19;;;22.55;76.54
40850;BME280;26571;41.610;25.380;2023-07-31T01:57:23;97698.66;;;22.49;77.17
40850;BME280;26571;41.610;25.380;2023-07-31T01:59:49;97683.06;;;22.46;77.23
40850;BME280;26571;41.610;25.380;2023-07-31T02:02:16;97685.53;;;22.53;77.15
40850;BME280;26571;41.610;25.380;2023-07-31T02:04:41;97688.50;;;22.56;76.75
40850;BME280;26571;41.610;25.380;2023-07-31T02:07:06;97702.91;;;22.40;76.39
40850;BME280;26571;41.610;25.380;2023-07-31T02:09:32;97664.75;;;22.28;76.10
40850;BME280;26571;41.610;25.380;2023-07-31T02:11:57;97693.31;;;22.54;76.27
40850;BME280;26571;41.610;25.380;2023-07-31T02:14:23;97696.00;;;22.54;76.50
40850;BME280;26571;41.610;25.380;2023-07-31T02:16:48;97685.75;;;22.41;77.43
40850;BME280;26571;41.610;25.380;2023-07-31T02:19:13;97698.63;;;22.44;77.44
40850;BME280;26571;41.610;25.380;2023-07-31T02:21:39;97636.94;;;21.97;77.45
40850;BME280;26571;41.610;25.380;2023-07-31T02:24:04;97694.91;;;22.50;77.81
40850;BME280;26571;41.610;25.380;2023-07-31T02:26:30;97692.50;;;22.49;78.11
40850;BME280;26571;41.610;25.380;2023-07-31T02:28:55;97697.31;;;22.52;78.35
40850;BME280;26571;41.610;25.380;2023-07-31T02:31:21;97700.28;;;22.50;79.01
40850;BME280;26571;41.610;25.380;2023-07-31T02:33:46;97699.72;;;22.48;79.55
40850;BME280;26571;41.610;25.380;2023-07-31T02:36:11;97697.16;;;22.21;79.77
40850;BME280;26571;41.610;25.380;2023-07-31T02:38:37;97700.19;;;22.35;80.19
40850;BME280;26571;41.610;25.380;2023-07-31T02:41:02;97702.41;;;22.48;79.78
40850;BME280;26571;41.610;25.380;2023-07-31T02:43:27;97643.22;;;22.12;80.01
40850;BME280;26571;41.610;25.380;2023-07-31T02:45:53;97671.19;;;22.32;78.25
40850;BME280;26571;41.610;25.380;2023-07-31T02:48:19;97711.28;;;22.49;77.62
40850;BME280;26571;41.610;25.380;2023-07-31T02:50:45;97721.16;;;22.43;76.35
40850;BME280;26571;41.610;25.380;2023-07-31T02:53:10;97712.56;;;22.41;75.74
40850;BME280;26571;41.610;25.380;2023-07-31T02:55:36;97712.56;;;22.41;76.13
40850;BME280;26571;41.610;25.380;2023-07-31T02:58:01;97715.81;;;22.43;76.70
40850;BME280;26571;41.610;25.380;2023-07-31T03:00:27;97699.06;;;22.26;77.02
40850;BME280;26571;41.610;25.380;2023-07-31T03:02:53;97717.91;;;22.41;74.31
40850;BME280;26571;41.610;25.380;2023-07-31T03:05:18;97728.34;;;22.37;72.41
40850;BME280;26571;41.610;25.380;2023-07-31T03:07:44;97726.22;;;22.34;72.97
40850;BME280;26571;41.610;25.380;2023-07-31T03:10:09;97728.88;;;22.34;72.99
40850;BME280;26571;41.610;25.380;2023-07-31T03:12:34;97715.44;;;22.29;71.36
40850;BME280;26571;41.610;25.380;2023-07-31T03:15:00;97706.56;;;22.24;70.06
40850;BME280;26571;41.610;25.380;2023-07-31T03:17:25;97732.41;;;22.40;69.74
40850;BME280;26571;41.610;25.380;2023-07-31T03:19:51;97732.91;;;22.37;70.50
40850;BME280;26571;41.610;25.380;2023-07-31T03:22:16;97734.00;;;22.41;70.79
40850;BME280;26571;41.610;25.380;2023-07-31T03:24:41;97732.41;;;22.40;70.87
40850;BME280;26571;41.610;25.380;2023-07-31T03:27:07;97731.31;;;22.41;70.83
40850;BME280;26571;41.610;25.380;2023-07-31T03:29:32;97707.63;;;22.23;71.23
40850;BME280;26571;41.610;25.380;2023-07-31T03:31:58;97732.91;;;22.37;71.29
40850;BME280;26571;41.610;25.380;2023-07-31T03:34:24;97727.53;;;22.37;70.62
40850;BME280;26571;41.610;25.380;2023-07-31T03:36:49;97648.31;;;21.77;70.67
40850;BME280;26571;41.610;25.380;2023-07-31T03:39:15;97741.28;;;22.45;70.90
40850;BME280;26571;41.610;25.380;2023-07-31T03:41:40;97713.53;;;22.25;70.70
40850;BME280;26571;41.610;25.380;2023-07-31T03:44:05;97734.53;;;22.38;71.31
40850;BME280;26571;41.610;25.380;2023-07-31T03:46:31;97730.19;;;22.32;71.99
40850;BME280;26571;41.610;25.380;2023-07-31T03:48:56;97706.53;;;22.18;71.14
40850;BME280;26571;41.610;25.380;2023-07-31T03:51:22;97713.78;;;22.18;70.93
40850;BME280;26571;41.610;25.380;2023-07-31T03:53:47;97710.28;;;22.23;70.48
40850;BME280;26571;41.610;25.380;2023-07-31T03:56:13;97730.78;;;22.39;71.06
40850;BME280;26571;41.610;25.380;2023-07-31T03:58:38;97713.59;;;22.35;70.86
40850;BME280;26571;41.610;25.380;2023-07-31T04:01:04;97735.72;;;22.62;70.70
40850;BME280;26571;41.610;25.380;2023-07-31T04:03:29;97736.47;;;23.05;70.05
40850;BME280;26571;41.610;25.380;2023-07-31T04:05:55;97708.88;;;23.25;68.12
40850;BME280;26571;41.610;25.380;2023-07-31T04:08:21;97740.94;;;23.67;66.88
40850;BME280;26571;41.610;25.380;2023-07-31T04:10:47;97734.22;;;23.75;65.78
40850;BME280;26571;41.610;25.380;2023-07-31T04:13:12;97743.88;;;24.27;64.46
40850;BME280;26571;41.610;25.380;2023-07-31T04:15:38;97748.09;;;24.69;62.07
40850;BME280;26571;41.610;25.380;2023-07-31T04:18:04;97749.84;;;24.99;62.02
40850;BME280;26571;41.610;25.380;2023-07-31T04:20:30;97739.47;;;25.37;60.43
40850;BME280;26571;41.610;25.380;2023-07-31T04:22:55;97741.38;;;25.70;58.38
40850;BME280;26571;41.610;25.380;2023-07-31T04:25:21;97717.06;;;25.81;57.92
40850;BME280;26571;41.610;25.380;2023-07-31T04:27:47;97718.16;;;26.09;56.83
40850;BME280;26571;41.610;25.380;2023-07-31T04:30:12;97704.66;;;26.38;54.06
40850;BME280;26571;41.610;25.380;2023-07-31T04:32:38;97732.63;;;26.76;52.83
40850;BME280;26571;41.610;25.380;2023-07-31T04:35:03;97738.56;;;26.97;49.74
40850;BME280;26571;41.610;25.380;2023-07-31T04:37:29;97736.72;;;27.16;50.27
40850;BME280;26571;41.610;25.380;2023-07-31T04:39:54;97730.81;;;27.33;48.96
40850;BME280;26571;41.610;25.380;2023-07-31T04:42:19;97719.03;;;27.43;48.27
40850;BME280;26571;41.610;25.380;2023-07-31T04:44:45;97746.22;;;27.70;49.04
40850;BME280;26571;41.610;25.380;2023-07-31T04:47:10;97714.03;;;27.69;48.18
40850;BME280;26571;41.610;25.380;2023-07-31T04:49:36;97758.50;;;28.14;48.74
40850;BME280;26571;41.610;25.380;2023-07-31T04:52:01;97752.81;;;28.29;47.95
40850;BME280;26571;41.610;25.380;2023-07-31T04:54:27;97752.41;;;28.55;46.47
40850;BME280;26571;41.610;25.380;2023-07-31T04:56:52;97758.31;;;28.71;44.97
40850;BME280;26571;41.610;25.380;2023-07-31T04:59:18;97769.06;;;28.76;45.39
40850;BME280;26571;41.610;25.380;2023-07-31T05:01:43;97766.34;;;28.76;45.65
40850;BME280;26571;41.610;25.380;2023-07-31T05:04:12;97776.38;;;28.62;46.39
40850;BME280;26571;41.610;25.380;2023-07-31T05:06:38;97771.53;;;28.58;46.32
40850;BME280;26571;41.610;25.380;2023-07-31T05:09:04;97785.75;;;28.37;46.45
40850;BME280;26571;41.610;25.380;2023-07-31T05:11:29;97774.72;;;27.81;47.40
40850;BME280;26571;41.610;25.380;2023-07-31T05:13:54;97784.34;;;27.50;48.70
40850;BME280;26571;41.610;25.380;2023-07-31T05:16:20;97790.22;;;27.14;50.03
40850;BME280;26571;41.610;25.380;2023-07-31T05:18:45;97714.97;;;26.30;50.92
40850;BME280;26571;41.610;25.380;2023-07-31T05:21:10;97797.34;;;26.57;51.67
40850;BME280;26571;41.610;25.380;2023-07-31T05:23:36;97806.72;;;26.30;52.36
40850;BME280;26571;41.610;25.380;2023-07-31T05:26:05;97813.97;;;26.06;54.29
40850;BME280;26571;41.610;25.380;2023-07-31T05:28:31;97809.75;;;25.90;55.39
40850;BME280;26571;41.610;25.380;2023-07-31T05:31:03;97818.50;;;25.71;56.79
40850;BME280;26571;41.610;25.380;2023-07-31T05:33:29;97811.25;;;25.67;57.78
40850;BME280;26571;41.610;25.380;2023-07-31T05:35:54;97811.03;;;25.58;57.37
40850;BME280;26571;41.610;25.380;2023-07-31T05:38:20;97792.22;;;25.48;57.33
40850;BME280;26571;41.610;25.380;2023-07-31T05:40:45;97823.97;;;25.56;56.33
40850;BME280;26571;41.610;25.380;2023-07-31T05:43:10;97814.34;;;25.40;55.90
40850;BME280;26571;41.610;25.380;2023-07-31T05:45:36;97783.53;;;25.07;55.87
40850;BME280;26571;41.610;25.380;2023-07-31T05:48:02;97799.94;;;25.00;56.76
40850;BME280;26571;41.610;25.380;2023-07-31T05:50:28;97817.44;;;25.02;57.65
40850;BME280;26571;41.610;25.380;2023-07-31T05:52:53;97816.09;;;25.05;56.58
40850;BME280;26571;41.610;25.380;2023-07-31T05:55:18;97794.63;;;24.80;55.19
40850;BME280;26571;41.610;25.380;2023-07-31T05:57:44;97811.84;;;24.84;55.82
40850;BME280;26571;41.610;25.380;2023-07-31T06:00:11;97832.31;;;24.80;56.33
40850;BME280;26571;41.610;25.380;2023-07-31T06:02:37;97838.81;;;24.68;57.22
40850;BME280;26571;41.610;25.380;2023-07-31T06:05:04;97839.34;;;24.55;59.24
40850;BME280;26571;41.610;25.380;2023-07-31T06:07:31;97849.06;;;24.46;61.27
40850;BME280;26571;41.610;25.380;2023-07-31T06:09:56;97853.31;;;24.27;63.49
40850;BME280;26571;41.610;25.380;2023-07-31T06:12:27;97884.00;;;24.25;65.21
40850;BME280;26571;41.610;25.380;2023-07-31T06:14:52;97873.22;;;24.15;67.56
40850;BME280;26571;41.610;25.380;2023-07-31T06:17:17;97872.69;;;24.03;70.41
40850;BME280;26571;41.610;25.380;2023-07-31T06:19:43;97768.69;;;23.00;72.03
40850;BME280;26571;41.610;25.380;2023-07-31T06:22:09;97871.00;;;23.71;74.01
40850;BME280;26571;41.610;25.380;2023-07-31T06:24:34;97875.81;;;23.64;75.63
40850;BME280;26571;41.610;25.380;2023-07-31T06:26:59;97869.88;;;23.52;77.54
40850;BME280;26571;41.610;25.380;2023-07-31T06:29:25;97866.88;;;23.43;78.45
40850;BME280;26571;41.610;25.380;2023-07-31T06:31:50;97879.72;;;23.36;79.73
40850;BME280;26571;41.610;25.380;2023-07-31T06:34:16;97876.16;;;23.20;80.56
40850;BME280;26571;41.610;25.380;2023-07-31T06:36:42;97877.78;;;23.21;82.20
40850;BME280;26571;41.610;25.380;2023-07-31T06:39:07;97848.34;;;22.89;83.25
40850;BME280;26571;41.610;25.380;2023-07-31T06:41:34;97897.59;;;23.10;83.25
40850;BME280;26571;41.610;25.380;2023-07-31T06:43:59;97891.34;;;23.00;83.87
40850;BME280;26571;41.610;25.380;2023-07-31T06:46:24;97901.28;;;22.99;84.72
40850;BME280;26571;41.610;25.380;2023-07-31T06:48:50;97854.13;;;22.76;85.32
40850;BME280;26571;41.610;25.380;2023-07-31T06:51:16;97906.69;;;23.04;83.98
40850;BME280;26571;41.610;25.380;2023-07-31T06:53:41;97902.91;;;23.00;82.12
40850;BME280;26571;41.610;25.380;2023-07-31T06:56:08;97810.41;;;22.33;81.81
40850;BME280;26571;41.610;25.380;2023-07-31T06:58:33;97874.00;;;22.75;82.05
40850;BME280;26571;41.610;25.380;2023-07-31T07:00:59;97901.56;;;22.98;83.48
40850;BME280;26571;41.610;25.380;2023-07-31T07:03:24;97826.22;;;22.35;84.20
40850;BME280;26571;41.610;25.380;2023-07-31T07:05:50;97876.41;;;22.77;85.21
40850;BME280;26571;41.610;25.380;2023-07-31T07:08:15;97873.19;;;22.75;85.95
40850;BME280;26571;41.610;25.380;2023-07-31T07:10:42;97882.88;;;22.81;86.41
40850;BME280;26571;41.610;25.380;2023-07-31T07:13:07;97908.78;;;22.97;86.34
40850;BME280;26571;41.610;25.380;2023-07-31T07:15:32;97883.44;;;22.83;88.13
40850;BME280;26571;41.610;25.380;2023-07-31T07:17:58;97894.22;;;22.88;87.58
40850;BME280;26571;41.610;25.380;2023-07-31T07:20:23;97908.50;;;22.93;86.36
40850;BME280;26571;41.610;25.380;2023-07-31T07:22:49;97838.34;;;22.42;85.83
40850;BME280;26571;41.610;25.380;2023-07-31T07:25:14;97900.91;;;22.85;86.08
40850;BME280;26571;41.610;25.380;2023-07-31T07:27:40;97910.13;;;22.94;85.95
40850;BME280;26571;41.610;25.380;2023-07-31T07:30:06;97910.69;;;23.02;86.75
40850;BME280;26571;41.610;25.380;2023-07-31T07:32:31;97860.38;;;22.87;86.27
40850;BME280;26571;41.610;25.380;2023-07-31T07:34:57;97908.97;;;23.28;82.56
40850;BME280;26571;41.610;25.380;2023-07-31T07:37:22;97900.44;;;23.46;82.43
40850;BME280;26571;41.610;25.380;2023-07-31T07:39:48;97856.88;;;23.29;83.01
40850;BME280;26571;41.610;25.380;2023-07-31T07:42:13;97884.38;;;23.61;82.51
40850;BME280;26571;41.610;25.380;2023-07-31T07:44:39;97866.63;;;23.55;82.16
40850;BME280;26571;41.610;25.380;2023-07-31T07:47:04;97902.44;;;23.71;79.62
40850;BME280;26571;41.610;25.380;2023-07-31T07:49:35;97881.63;;;23.46;81.10
40850;BME280;26571;41.610;25.380;2023-07-31T07:52:01;97891.31;;;23.47;80.68
40850;BME280;26571;41.610;25.380;2023-07-31T07:54:27;97897.75;;;23.41;80.55
40850;BME280;26571;41.610;25.380;2023-07-31T07:56:52;97906.41;;;23.53;79.96
40850;BME280;26571;41.610;25.380;2023-07-31T07:59:19;97913.09;;;23.56;78.87
40850;BME280;26571;41.610;25.380;2023-07-31T08:01:45;97908.53;;;23.51;79.10
40850;BME280;26571;41.610;25.380;2023-07-31T08:04:10;97841.72;;;23.07;78.18
40850;BME280;26571;41.610;25.380;2023-07-31T08:06:36;97872.72;;;23.35;77.66
40850;BME280;26571;41.610;25.380;2023-07-31T08:09:01;97913.94;;;23.61;77.87
40850;BME280;26571;41.610;25.380;2023-07-31T08:11:31;97858.75;;;23.28;77.58
40850;BME280;26571;41.610;25.380;2023-07-31T08:13:57;97895.75;;;23.73;77.53
40850;BME280;26571;41.610;25.380;2023-07-31T08:16:22;97891.50;;;23.93;78.96
40850;BME280;26571;41.610;25.380;2023-07-31T08:18:48;97916.84;;;24.28;78.59
40850;BME280;26571;41.610;25.380;2023-07-31T08:21:14;97921.44;;;24.47;75.34
40850;BME280;26571;41.610;25.380;2023-07-31T08:23:40;97916.06;;;24.68;74.26
40850;BME280;26571;41.610;25.380;2023-07-31T08:26:05;97910.38;;;24.90;71.65
40850;BME280;26571;41.610;25.380;2023-07-31T08:28:31;97913.31;;;25.14;70.88
40850;BME280;26571;41.610;25.380;2023-07-31T08:30:56;97910.84;;;25.33;71.78
40850;BME280;26571;41.610;25.380;2023-07-31T08:33:22;97909.47;;;25.40;68.72
40850;BME280;26571;41.610;25.380;2023-07-31T08:35:47;97883.72;;;25.09;67.92
40850;BME280;26571;41.610;25.380;2023-07-31T08:38:13;97879.41;;;25.02;68.12
40850;BME280;26571;41.610;25.380;2023-07-31T08:40:39;97906.59;;;25.16;68.30
40850;BME280;26571;41.610;25.380;2023-07-31T08:43:04;97907.16;;;25.08;69.23
40850;BME280;26571;41.610;25.380;2023-07-31T08:45:30;97879.09;;;25.04;69.16
40850;BME280;26571;41.610;25.380;2023-07-31T08:47:56;97898.50;;;25.26;68.66
40850;BME280;26571;41.610;25.380;2023-07-31T08:50:25;97894.19;;;25.15;70.16
40850;BME280;26571;41.610;25.380;2023-07-31T08:52:51;97896.28;;;25.34;69.82
40850;BME280;26571;41.610;25.380;2023-07-31T08:55:17;97893.53;;;25.49;68.46
40850;BME280;26571;41.610;25.380;2023-07-31T08:57:43;97890.19;;;25.83;68.45
40850;BME280;26571;41.610;25.380;2023-07-31T09:00:10;97894.78;;;26.21;66.51
40850;BME280;26571;41.610;25.380;2023-07-31T09:02:48;97898.94;;;26.48;65.89
40850;BME280;26571;41.610;25.380;2023-07-31T09:05:17;97893.91;;;26.65;65.57
40850;BME280;26571;41.610;25.380;2023-07-31T09:07:45;97893.31;;;26.73;66.85
40850;BME280;26571;41.610;25.380;2023-07-31T09:10:12;97860.59;;;26.75;65.95
40850;BME280;26571;41.610;25.380;2023-07-31T09:12:38;97900.53;;;27.12;65.30
40850;BME280;26571;41.610;25.380;2023-07-31T09:15:10;97884.63;;;27.29;64.67
40850;BME280;26571;41.610;25.380;2023-07-31T09:17:36;97891.38;;;27.56;65.29
40850;BME280;26571;41.610;25.380;2023-07-31T09:20:20;97896.53;;;27.76;64.66
40850;BME280;26571;41.610;25.380;2023-07-31T09:22:47;97883.19;;;27.61;62.14
40850;BME280;26571;41.610;25.380;2023-07-31T09:27:47;97882.09;;;27.62;63.13
40850;BME280;26571;41.610;25.380;2023-07-31T09:30:14;97832.19;;;27.06;63.81
40850;BME280;26571;41.610;25.380;2023-07-31T09:32:39;97900.44;;;27.65;63.27
40850;BME280;26571;41.610;25.380;2023-07-31T09:35:21;97899.41;;;27.85;62.07
40850;BME280;26571;41.610;25.380;2023-07-31T09:37:53;97856.63;;;27.44;62.86
40850;BME280;26571;41.610;25.380;2023-07-31T09:40:29;97879.81;;;27.69;65.00
40850;BME280;26571;41.610;25.380;2023-07-31T09:42:59;97891.78;;;27.87;64.01
40850;BME280;26571;41.610;25.380;2023-07-31T09:45:26;97884.88;;;28.14;67.28
40850;BME280;26571;41.610;25.380;2023-07-31T09:47:51;97893.09;;;28.27;61.97
40850;BME280;26571;41.610;25.380;2023-07-31T09:50:19;97880.03;;;28.35;63.07
40850;BME280;26571;41.610;25.380;2023-07-31T09:52:44;97882.66;;;28.53;63.92
40850;BME280;26571;41.610;25.380;2023-07-31T09:55:10;97874.03;;;28.51;63.01
40850;BME280;26571;41.610;25.380;2023-07-31T09:57:45;97879.16;;;28.53;62.34
40850;BME280;26571;41.610;25.380;2023-07-31T10:00:12;97877.06;;;28.50;63.01
40850;BME280;26571;41.610;25.380;2023-07-31T10:02:38;97871.19;;;28.43;63.18
40850;BME280;26571;41.610;25.380;2023-07-31T10:05:06;97878.44;;;28.47;61.17
40850;BME280;26571;41.610;25.380;2023-07-31T10:07:38;97862.59;;;28.41;63.31
40850;BME280;26571;41.610;25.380;2023-07-31T10:10:09;97669.34;;;27.01;61.80
40850;BME280;26571;41.610;25.380;2023-07-31T10:12:36;97863.16;;;28.70;60.28
40850;BME280;26571;41.610;25.380;2023-07-31T10:15:02;97816.56;;;28.22;60.27
40850;BME280;26571;41.610;25.380;2023-07-31T10:17:28;97866.06;;;28.60;61.83
40850;BME280;26571;41.610;25.380;2023-07-31T10:19:54;97816.28;;;28.04;61.39
40850;BME280;26571;41.610;25.380;2023-07-31T10:22:21;97839.75;;;28.28;61.40
40850;BME280;26571;41.610;25.380;2023-07-31T10:24:48;97853.66;;;28.21;61.89
40850;BME280;26571;41.610;25.380;2023-07-31T10:27:14;97838.16;;;28.08;63.97
40850;BME280;26571;41.610;25.380;2023-07-31T10:29:41;97846.66;;;28.20;63.54
40850;BME280;26571;41.610;25.380;2023-07-31T10:32:09;97856.19;;;28.31;62.93
40850;BME280;26571;41.610;25.380;2023-07-31T10:34:36;97856.28;;;28.45;64.22
40850;BME280;26571;41.610;25.380;2023-07-31T10:37:26;97839.41;;;28.35;63.29
40850;BME280;26571;41.610;25.380;2023-07-31T10:42:27;97821.44;;;28.06;62.01
40850;BME280;26571;41.610;25.380;2023-07-31T10:45:06;97831.31;;;27.97;64.65
40850;BME280;26571;41.610;25.380;2023-07-31T10:48:02;97828.53;;;28.02;63.23
40850;BME280;26571;41.610;25.380;2023-07-31T10:50:29;97802.66;;;27.96;62.29
40850;BME280;26571;41.610;25.380;2023-07-31T10:52:56;97817.69;;;28.02;61.51
40850;BME280;26571;41.610;25.380;2023-07-31T10:55:41;97814.50;;;28.00;62.20
40850;BME280;26571;41.610;25.380;2023-07-31T10:58:11;97815.50;;;28.04;61.46
40850;BME280;26571;41.610;25.380;2023-07-31T11:00:38;97808.31;;;28.13;62.60
40850;BME280;26571;41.610;25.380;2023-07-31T11:03:05;97807.66;;;28.21;61.70
40850;BME280;26571;41.610;25.380;2023-07-31T11:08:35;97799.25;;;28.04;60.47
40850;BME280;26571;41.610;25.380;2023-07-31T11:13:27;97799.66;;;27.97;60.00
40850;BME280;26571;41.610;25.380;2023-07-31T11:15:53;97763.91;;;27.81;60.06
40850;BME280;26571;41.610;25.380;2023-07-31T11:18:19;97818.66;;;27.92;58.76
40850;BME280;26571;41.610;25.380;2023-07-31T11:20:44;97798.34;;;27.76;57.99
40850;BME280;26571;41.610;25.380;2023-07-31T11:23:10;97791.13;;;27.71;59.56
40850;BME280;26571;41.610;25.380;2023-07-31T11:25:37;97780.03;;;27.68;58.92
40850;BME280;26571;41.610;25.380;2023-07-31T11:28:10;97785.22;;;27.64;58.38
40850;BME280;26571;41.610;25.380;2023-07-31T11:30:36;97775.28;;;27.60;58.00
40850;BME280;26571;41.610;25.380;2023-07-31T11:33:03;97783.28;;;27.51;59.50
40850;BME280;26571;41.610;25.380;2023-07-31T11:35:40;97785.53;;;27.63;58.71
40850;BME280;26571;41.610;25.380;2023-07-31T11:38:07;97778.63;;;27.75;57.35
40850;BME280;26571;41.610;25.380;2023-07-31T11:40:43;97771.94;;;27.87;56.98
40850;BME280;26571;41.610;25.380;2023-07-31T11:43:09;97768.59;;;27.95;57.23
40850;BME280;26571;41.610;25.380;2023-07-31T11:45:37;97768.19;;;28.01;56.55
40850;BME280;26571;41.610;25.380;2023-07-31T11:48:04;97755.47;;;28.02;56.52
40850;BME280;26571;41.610;25.380;2023-07-31T11:50:33;97759.00;;;28.16;56.85
40850;BME280;26571;41.610;25.380;2023-07-31T11:53:07;97732.03;;;28.11;55.06
40850;BME280;26571;41.610;25.380;2023-07-31T11:55:34;97753.84;;;28.33;54.67
40850;BME280;26571;41.610;25.380;2023-07-31T11:58:00;97716.28;;;28.13;53.14
40850;BME280;26571;41.610;25.380;2023-07-31T12:00:27;97747.28;;;28.40;52.52
40850;BME280;26571;41.610;25.380;2023-07-31T12:02:53;97741.94;;;28.48;52.10
40850;BME280;26571;41.610;25.380;2023-07-31T12:05:19;97738.56;;;28.56;51.64
40850;BME280;26571;41.610;25.380;2023-07-31T12:07:54;97644.28;;;27.85;50.69
40850;BME280;26571;41.610;25.380;2023-07-31T12:12:59;97739.00;;;28.31;50.16
40850;BME280;26571;41.610;25.380;2023-07-31T12:15:32;97701.56;;;28.05;50.14
40850;BME280;26571;41.610;25.380;2023-07-31T12:17:58;97737.69;;;28.28;50.71
40850;BME280;26571;41.610;25.380;2023-07-31T12:20:24;97727.59;;;28.34;49.93
40850;BME280;26571;41.610;25.380;2023-07-31T12:22:49;97663.66;;;27.92;50.09
40850;BME280;26571;41.610;25.380;2023-07-31T12:25:17;97725.09;;;28.51;49.71
40850;BME280;26571;41.610;25.380;2023-07-31T12:27:46;97714.66;;;28.58;48.65
40850;BME280;26571;41.610;25.380;2023-07-31T12:30:28;97713.38;;;28.56;49.79
40850;BME280;26571;41.610;25.380;2023-07-31T12:32:54;97694.81;;;28.63;49.26
40850;BME280;26571;41.610;25.380;2023-07-31T12:35:19;97710.56;;;28.75;48.46
40850;BME280;26571;41.610;25.380;2023-07-31T12:37:45;97704.53;;;28.78;48.24
40850;BME280;26571;41.610;25.380;2023-07-31T12:40:11;97706.53;;;28.72;48.81
40850;BME280;26571;41.610;25.380;2023-07-31T12:42:36;97707.25;;;28.64;49.05
40850;BME280;26571;41.610;25.380;2023-07-31T12:45:02;97706.97;;;28.79;47.92
40850;BME280;26571;41.610;25.380;2023-07-31T12:47:29;97704.94;;;28.85;49.94
40850;BME280;26571;41.610;25.380;2023-07-31T12:49:55;97710.53;;;29.02;49.35
40850;BME280;26571;41.610;25.380;2023-07-31T12:52:20;97687.25;;;28.88;48.33
40850;BME280;26571;41.610;25.380;2023-07-31T12:54:46;97695.38;;;29.15;48.64
40850;BME280;26571;41.610;25.380;2023-07-31T12:57:11;97698.69;;;29.12;47.58
40850;BME280;26571;41.610;25.380;2023-07-31T12:59:37;97692.38;;;28.89;46.87
40850;BME280;26571;41.610;25.380;2023-07-31T13:02:02;97687.06;;;28.98;47.31
40850;BME280;26571;41.610;25.380;2023-07-31T13:04:28;97634.84;;;28.70;47.15
40850;BME280;26571;41.610;25.380;2023-07-31T13:06:53;97561.72;;;28.28;47.74